Aérodrome d'Ussel-Thalamy

METAR LFLC TAF LFLC
24 °C
°C
/
°C
16m
Wiek
13:16:19
LT
11:16
UTC
0 ft

1.000

2.000

3.000

4.000

5.000

VFR
<?= Yii::t('app', 'Wind direction') ?> <?= Yii::t('app', 'of'); ?>
020°
21:29
Zachód słońca
47%
Wilgotność
Siła wiatru
Zamknięte/Śnieg
Zasięg wzroku na RWY
Stan RWY
Widzialność pionowa
Min. widoczność
CAVOK
Trend
Korekta
Raport specjalny
1017 hPa
QNH
METAR LFLC 011100Z AUTO 02005KT 340V060 CAVOK 24/12 Q1017 NOSIG
Niebo czyste
5 kt
5 kt
13:00
VFR
8 kt
14:00
VFR
8 kt
15:00
VFR
8 kt
16:00
VFR
8 kt
17:00
IFR
15 kt
18:00
IFR
15 kt
19:00
IFR
15 kt
10 km+
Widoczność
Brak
Sufit
5 kt
Wiatr
metar-taf.com/LFCU

Metar-Taf.com

Dekoder wizualny

My i strony trzecie śledzimy Twoje zachowanie internetowe na naszej stronie za pomocą plików cookie. Jeśli kontynuujesz, zakładamy, że zgadzasz się z naszymi polityka plików cookie.